OAL063 ROAH-RJKA
Flight info
| Callsign | OAL063 |
|---|---|
| Flight time | 1h 0m |
| Altitude | 5500 |
| Route | KADENA YORON ERABU TOKUNOSHIMA KASARI |
| Aircraft | C208/L-SDFGR/C |
Departure
| Time | 2026-04-29 12:22 |
|---|---|
| Airport | Naha International Airport (ROAH) |
Arrival
| Time | 2026-04-29 13:22 |
|---|---|
| Airport | Amami Airport (RJKA) |
| Time | Latitude | Longitude | Altitude | Speed | Heading |
|---|---|---|---|---|---|
| 2026-04-29 12:14 | 26.20096 | 127.64274 | 16 ft | 0 kts | 359° |
| 2026-04-29 12:20 | 26.20101 | 127.64274 | 16 ft | 5 kts | 2° |
| 2026-04-29 12:20 | 26.20149 | 127.64326 | 15 ft | 16 kts | 0° |
| 2026-04-29 12:20 | 26.20285 | 127.64320 | 16 ft | 13 kts | 359° |
| 2026-04-29 12:20 | 26.20337 | 127.64432 | 16 ft | 22 kts | 88° |
| 2026-04-29 12:21 | 26.20309 | 127.64551 | 17 ft | 18 kts | 164° |
| 2026-04-29 12:21 | 26.20092 | 127.64563 | 15 ft | 55 kts | 178° |
| 2026-04-29 12:21 | 26.19561 | 127.64589 | 120 ft | 86 kts | 175° |
| 2026-04-29 12:21 | 26.18977 | 127.64552 | 433 ft | 89 kts | 198° |
| 2026-04-29 12:22 | 26.18711 | 127.63944 | 777 ft | 99 kts | 282° |
| 2026-04-29 12:22 | 26.19249 | 127.63488 | 1016 ft | 107 kts | 6° |
| 2026-04-29 12:22 | 26.19771 | 127.63898 | 1318 ft | 93 kts | 81° |
| 2026-04-29 12:22 | 26.20107 | 127.64533 | 1532 ft | 106 kts | 45° |
| 2026-04-29 12:23 | 26.20755 | 127.65061 | 1741 ft | 123 kts | 45° |
| 2026-04-29 12:23 | 26.21473 | 127.65671 | 1962 ft | 136 kts | 43° |
| 2026-04-29 12:23 | 26.22252 | 127.66301 | 2228 ft | 141 kts | 41° |
| 2026-04-29 12:23 | 26.23065 | 127.66943 | 2489 ft | 145 kts | 41° |
| 2026-04-29 12:24 | 26.23902 | 127.67606 | 2746 ft | 150 kts | 41° |
| 2026-04-29 12:24 | 26.24765 | 127.68285 | 3003 ft | 153 kts | 40° |
| 2026-04-29 12:24 | 26.25641 | 127.68980 | 3254 ft | 155 kts | 39° |
| 2026-04-29 12:24 | 26.26513 | 127.69663 | 3510 ft | 155 kts | 39° |
| 2026-04-29 12:25 | 26.27401 | 127.70363 | 3762 ft | 157 kts | 39° |
| 2026-04-29 12:25 | 26.28296 | 127.71070 | 3999 ft | 158 kts | 39° |
| 2026-04-29 12:25 | 26.30105 | 127.72496 | 4509 ft | 160 kts | 39° |
| 2026-04-29 12:26 | 26.31017 | 127.73216 | 4766 ft | 161 kts | 38° |
| 2026-04-29 12:26 | 26.31934 | 127.73939 | 5005 ft | 162 kts | 38° |
| 2026-04-29 12:26 | 26.32856 | 127.74665 | 5252 ft | 163 kts | 38° |
| 2026-04-29 12:26 | 26.33787 | 127.75402 | 5481 ft | 166 kts | 37° |
| 2026-04-29 12:27 | 26.34772 | 127.76181 | 5495 ft | 181 kts | 37° |
| 2026-04-29 12:27 | 26.35819 | 127.77016 | 5508 ft | 188 kts | 41° |
| 2026-04-29 12:27 | 26.36833 | 127.77955 | 5508 ft | 190 kts | 41° |
| 2026-04-29 12:27 | 26.37516 | 127.78576 | 5509 ft | 192 kts | 41° |
| 2026-04-29 12:28 | 26.38566 | 127.79527 | 5509 ft | 196 kts | 41° |
| 2026-04-29 12:28 | 26.39630 | 127.80496 | 5509 ft | 198 kts | 41° |
| 2026-04-29 12:28 | 26.40698 | 127.81471 | 5508 ft | 199 kts | 41° |
| 2026-04-29 12:28 | 26.42123 | 127.82770 | 5508 ft | 200 kts | 41° |
| 2026-04-29 12:29 | 26.42846 | 127.83432 | 5509 ft | 198 kts | 41° |
| 2026-04-29 12:29 | 26.43916 | 127.84413 | 5509 ft | 199 kts | 41° |
| 2026-04-29 12:29 | 26.44986 | 127.85393 | 5509 ft | 199 kts | 41° |
| 2026-04-29 12:29 | 26.46042 | 127.86360 | 5509 ft | 199 kts | 41° |
| 2026-04-29 12:30 | 26.47114 | 127.87347 | 5507 ft | 200 kts | 41° |
| 2026-04-29 12:30 | 26.48192 | 127.88328 | 5503 ft | 199 kts | 41° |
| 2026-04-29 12:30 | 26.49263 | 127.89312 | 5502 ft | 199 kts | 40° |
| 2026-04-29 12:30 | 26.50336 | 127.90299 | 5504 ft | 201 kts | 41° |
| 2026-04-29 12:31 | 26.51421 | 127.91291 | 5503 ft | 202 kts | 41° |
| 2026-04-29 12:31 | 26.52510 | 127.92285 | 5506 ft | 202 kts | 41° |
| 2026-04-29 12:31 | 26.53592 | 127.93276 | 5503 ft | 200 kts | 41° |
| 2026-04-29 12:31 | 26.54657 | 127.94262 | 5504 ft | 198 kts | 41° |
| 2026-04-29 12:32 | 26.55728 | 127.95247 | 5504 ft | 200 kts | 41° |
| 2026-04-29 12:32 | 26.56803 | 127.96232 | 5503 ft | 199 kts | 41° |
| 2026-04-29 12:32 | 26.57872 | 127.97213 | 5500 ft | 200 kts | 41° |
| 2026-04-29 12:32 | 26.58942 | 127.98192 | 5497 ft | 198 kts | 41° |
| 2026-04-29 12:33 | 26.60008 | 127.99177 | 5501 ft | 201 kts | 41° |
| 2026-04-29 12:33 | 26.61072 | 128.00156 | 5500 ft | 201 kts | 41° |
| 2026-04-29 12:33 | 26.62160 | 128.01152 | 5502 ft | 201 kts | 41° |
| 2026-04-29 12:33 | 26.63241 | 128.02141 | 5504 ft | 201 kts | 41° |
| 2026-04-29 12:34 | 26.64304 | 128.03126 | 5504 ft | 197 kts | 41° |
| 2026-04-29 12:34 | 26.65363 | 128.04111 | 5502 ft | 198 kts | 41° |
| 2026-04-29 12:34 | 26.66432 | 128.05086 | 5499 ft | 198 kts | 41° |
| 2026-04-29 12:34 | 26.67496 | 128.06063 | 5498 ft | 198 kts | 41° |
| 2026-04-29 12:35 | 26.68558 | 128.07044 | 5498 ft | 198 kts | 41° |
| 2026-04-29 12:35 | 26.69624 | 128.08026 | 5498 ft | 199 kts | 41° |
| 2026-04-29 12:35 | 26.70687 | 128.09005 | 5497 ft | 198 kts | 41° |
| 2026-04-29 12:35 | 26.71748 | 128.09987 | 5500 ft | 197 kts | 40° |
| 2026-04-29 12:36 | 26.72810 | 128.10958 | 5500 ft | 198 kts | 41° |
| 2026-04-29 12:36 | 26.73857 | 128.11927 | 5500 ft | 198 kts | 41° |
| 2026-04-29 12:36 | 26.74919 | 128.12905 | 5498 ft | 198 kts | 41° |
| 2026-04-29 12:36 | 26.75984 | 128.13883 | 5501 ft | 198 kts | 41° |
| 2026-04-29 12:37 | 26.77046 | 128.14866 | 5500 ft | 198 kts | 41° |
| 2026-04-29 12:37 | 26.78105 | 128.15847 | 5498 ft | 198 kts | 41° |
| 2026-04-29 12:37 | 26.79164 | 128.16825 | 5496 ft | 197 kts | 41° |
| 2026-04-29 12:37 | 26.80221 | 128.17800 | 5494 ft | 197 kts | 41° |
| 2026-04-29 12:38 | 26.81280 | 128.18778 | 5493 ft | 197 kts | 41° |
| 2026-04-29 12:38 | 26.82336 | 128.19754 | 5493 ft | 197 kts | 41° |
| 2026-04-29 12:38 | 26.83392 | 128.20731 | 5493 ft | 197 kts | 41° |
| 2026-04-29 12:38 | 26.84452 | 128.21709 | 5493 ft | 196 kts | 41° |
| 2026-04-29 12:39 | 26.85492 | 128.22670 | 5491 ft | 196 kts | 41° |
| 2026-04-29 12:39 | 26.86544 | 128.23645 | 5491 ft | 196 kts | 41° |
| 2026-04-29 12:39 | 26.87602 | 128.24623 | 5491 ft | 197 kts | 41° |
| 2026-04-29 12:39 | 26.88658 | 128.25600 | 5490 ft | 197 kts | 41° |
| 2026-04-29 12:40 | 26.89711 | 128.26575 | 5491 ft | 197 kts | 41° |
| 2026-04-29 12:40 | 26.90766 | 128.27551 | 5490 ft | 197 kts | 41° |
| 2026-04-29 12:40 | 26.91824 | 128.28532 | 5491 ft | 198 kts | 41° |
| 2026-04-29 12:40 | 26.92883 | 128.29511 | 5490 ft | 197 kts | 41° |
| 2026-04-29 12:41 | 26.93943 | 128.30494 | 5490 ft | 197 kts | 41° |
| 2026-04-29 12:41 | 26.95000 | 128.31472 | 5491 ft | 197 kts | 41° |
| 2026-04-29 12:41 | 26.96045 | 128.32442 | 5490 ft | 198 kts | 41° |
| 2026-04-29 12:41 | 26.97105 | 128.33425 | 5490 ft | 198 kts | 41° |
| 2026-04-29 12:42 | 26.98163 | 128.34406 | 5490 ft | 197 kts | 41° |
| 2026-04-29 12:42 | 26.99223 | 128.35388 | 5490 ft | 198 kts | 41° |
| 2026-04-29 12:42 | 27.00285 | 128.36372 | 5490 ft | 197 kts | 41° |
| 2026-04-29 12:42 | 27.01342 | 128.37355 | 5490 ft | 198 kts | 41° |
| 2026-04-29 12:43 | 27.02402 | 128.38340 | 5490 ft | 197 kts | 40° |
| 2026-04-29 12:43 | 27.03459 | 128.39317 | 5489 ft | 197 kts | 41° |
| 2026-04-29 12:43 | 27.04525 | 128.40293 | 5488 ft | 198 kts | 37° |
| 2026-04-29 12:43 | 27.05653 | 128.41146 | 5486 ft | 198 kts | 34° |
| 2026-04-29 12:44 | 27.06797 | 128.42009 | 5487 ft | 198 kts | 35° |
| 2026-04-29 12:44 | 27.07937 | 128.42880 | 5487 ft | 198 kts | 35° |
| 2026-04-29 12:44 | 27.09076 | 128.43750 | 5487 ft | 198 kts | 35° |
| 2026-04-29 12:44 | 27.10210 | 128.44617 | 5488 ft | 197 kts | 35° |
| 2026-04-29 12:45 | 27.11349 | 128.45484 | 5485 ft | 197 kts | 35° |
| 2026-04-29 12:45 | 27.12485 | 128.46351 | 5485 ft | 197 kts | 35° |
| 2026-04-29 12:45 | 27.13624 | 128.47218 | 5487 ft | 198 kts | 35° |
| 2026-04-29 12:45 | 27.14762 | 128.48085 | 5485 ft | 198 kts | 35° |
| 2026-04-29 12:46 | 27.15900 | 128.48955 | 5487 ft | 198 kts | 35° |
| 2026-04-29 12:46 | 27.17042 | 128.49827 | 5487 ft | 198 kts | 34° |
| 2026-04-29 12:46 | 27.18186 | 128.50698 | 5487 ft | 198 kts | 35° |
| 2026-04-29 12:46 | 27.19328 | 128.51569 | 5486 ft | 198 kts | 35° |
| 2026-04-29 12:47 | 27.20466 | 128.52440 | 5487 ft | 198 kts | 35° |
| 2026-04-29 12:47 | 27.21601 | 128.53306 | 5488 ft | 197 kts | 35° |
| 2026-04-29 12:47 | 27.22717 | 128.54159 | 5492 ft | 197 kts | 35° |
| 2026-04-29 12:47 | 27.23850 | 128.55026 | 5492 ft | 197 kts | 35° |
| 2026-04-29 12:48 | 27.24983 | 128.55893 | 5491 ft | 197 kts | 35° |
| 2026-04-29 12:48 | 27.26117 | 128.56764 | 5491 ft | 197 kts | 34° |
| 2026-04-29 12:48 | 27.27252 | 128.57627 | 5491 ft | 197 kts | 34° |
| 2026-04-29 12:48 | 27.28386 | 128.58493 | 5502 ft | 196 kts | 35° |
| 2026-04-29 12:49 | 27.29515 | 128.59357 | 5502 ft | 197 kts | 35° |
| 2026-04-29 12:49 | 27.30652 | 128.60225 | 5502 ft | 198 kts | 34° |
| 2026-04-29 12:49 | 27.31789 | 128.61096 | 5503 ft | 197 kts | 35° |
| 2026-04-29 12:49 | 27.32924 | 128.61966 | 5503 ft | 197 kts | 34° |
| 2026-04-29 12:50 | 27.34051 | 128.62828 | 5501 ft | 195 kts | 34° |
| 2026-04-29 12:50 | 27.35175 | 128.63692 | 5501 ft | 195 kts | 34° |
| 2026-04-29 12:50 | 27.36304 | 128.64556 | 5500 ft | 196 kts | 35° |
| 2026-04-29 12:50 | 27.37426 | 128.65421 | 5500 ft | 196 kts | 35° |
| 2026-04-29 12:51 | 27.38539 | 128.66272 | 5500 ft | 196 kts | 34° |
| 2026-04-29 12:51 | 27.39666 | 128.67137 | 5500 ft | 196 kts | 34° |
| 2026-04-29 12:51 | 27.40791 | 128.67998 | 5502 ft | 196 kts | 35° |
| 2026-04-29 12:51 | 27.41918 | 128.68862 | 5504 ft | 196 kts | 35° |
| 2026-04-29 12:52 | 27.43046 | 128.69726 | 5506 ft | 196 kts | 34° |
| 2026-04-29 12:52 | 27.44270 | 128.70389 | 5499 ft | 196 kts | 21° |
| 2026-04-29 12:52 | 27.45534 | 128.70954 | 5500 ft | 196 kts | 21° |
| 2026-04-29 12:52 | 27.46795 | 128.71540 | 5500 ft | 196 kts | 22° |
| 2026-04-29 12:53 | 27.48052 | 128.72131 | 5499 ft | 195 kts | 22° |
| 2026-04-29 12:53 | 27.49308 | 128.72718 | 5501 ft | 196 kts | 22° |
| 2026-04-29 12:53 | 27.50568 | 128.73306 | 5500 ft | 196 kts | 22° |
| 2026-04-29 12:53 | 27.51813 | 128.73887 | 5502 ft | 196 kts | 22° |
| 2026-04-29 12:54 | 27.53074 | 128.74474 | 5502 ft | 196 kts | 22° |
| 2026-04-29 12:54 | 27.54337 | 128.75064 | 5501 ft | 196 kts | 22° |
| 2026-04-29 12:54 | 27.55596 | 128.75652 | 5500 ft | 196 kts | 22° |
| 2026-04-29 12:54 | 27.56856 | 128.76239 | 5501 ft | 195 kts | 22° |
| 2026-04-29 12:55 | 27.58111 | 128.76829 | 5501 ft | 195 kts | 22° |
| 2026-04-29 12:55 | 27.59365 | 128.77415 | 5499 ft | 195 kts | 22° |
| 2026-04-29 12:55 | 27.60619 | 128.77999 | 5501 ft | 195 kts | 22° |
| 2026-04-29 12:55 | 27.61875 | 128.78584 | 5503 ft | 195 kts | 22° |
| 2026-04-29 12:56 | 27.63129 | 128.79172 | 5503 ft | 195 kts | 22° |
| 2026-04-29 12:56 | 27.64385 | 128.79760 | 5502 ft | 196 kts | 22° |
| 2026-04-29 12:56 | 27.65646 | 128.80349 | 5501 ft | 196 kts | 22° |
| 2026-04-29 12:56 | 27.66886 | 128.80930 | 5503 ft | 196 kts | 22° |
| 2026-04-29 12:57 | 27.68144 | 128.81519 | 5503 ft | 196 kts | 21° |
| 2026-04-29 12:57 | 27.69401 | 128.82106 | 5502 ft | 195 kts | 22° |
| 2026-04-29 12:57 | 27.70657 | 128.82695 | 5501 ft | 196 kts | 22° |
| 2026-04-29 12:57 | 27.71914 | 128.83283 | 5503 ft | 196 kts | 21° |
| 2026-04-29 12:58 | 27.73175 | 128.83875 | 5504 ft | 196 kts | 22° |
| 2026-04-29 12:58 | 27.74438 | 128.84464 | 5502 ft | 196 kts | 22° |
| 2026-04-29 12:58 | 27.75695 | 128.85055 | 5501 ft | 196 kts | 22° |
| 2026-04-29 12:58 | 27.76956 | 128.85648 | 5502 ft | 196 kts | 22° |
| 2026-04-29 12:59 | 27.78215 | 128.86239 | 5502 ft | 196 kts | 22° |
| 2026-04-29 12:59 | 27.79474 | 128.86830 | 5499 ft | 196 kts | 22° |
| 2026-04-29 12:59 | 27.80731 | 128.87419 | 5498 ft | 196 kts | 21° |
| 2026-04-29 12:59 | 27.81986 | 128.88021 | 5501 ft | 196 kts | 25° |
| 2026-04-29 13:00 | 27.83041 | 128.88982 | 5501 ft | 195 kts | 51° |
| 2026-04-29 13:00 | 27.83900 | 128.90175 | 5503 ft | 195 kts | 52° |
| 2026-04-29 13:00 | 27.84778 | 128.91348 | 5501 ft | 196 kts | 51° |
| 2026-04-29 13:00 | 27.85653 | 128.92513 | 5505 ft | 192 kts | 51° |
| 2026-04-29 13:01 | 27.86528 | 128.93695 | 5417 ft | 201 kts | 52° |
| 2026-04-29 13:01 | 27.87401 | 128.94950 | 5309 ft | 204 kts | 56° |
| 2026-04-29 13:01 | 27.88209 | 128.96240 | 5216 ft | 203 kts | 57° |
| 2026-04-29 13:01 | 27.89018 | 128.97539 | 5121 ft | 201 kts | 57° |
| 2026-04-29 13:02 | 27.89818 | 128.98836 | 5023 ft | 202 kts | 57° |
| 2026-04-29 13:02 | 27.90620 | 129.00131 | 4923 ft | 201 kts | 57° |
| 2026-04-29 13:02 | 27.91418 | 129.01424 | 4823 ft | 200 kts | 57° |
| 2026-04-29 13:02 | 27.92214 | 129.02713 | 4724 ft | 199 kts | 57° |
| 2026-04-29 13:03 | 27.93004 | 129.03992 | 4625 ft | 199 kts | 57° |
| 2026-04-29 13:03 | 27.93796 | 129.05276 | 4524 ft | 199 kts | 57° |
| 2026-04-29 13:03 | 27.94581 | 129.06545 | 4422 ft | 192 kts | 57° |
| 2026-04-29 13:03 | 27.95320 | 129.07742 | 4313 ft | 181 kts | 57° |
| 2026-04-29 13:04 | 27.96030 | 129.08889 | 4204 ft | 176 kts | 57° |
| 2026-04-29 13:04 | 27.96733 | 129.10020 | 4095 ft | 176 kts | 57° |
| 2026-04-29 13:04 | 27.97441 | 129.11156 | 3986 ft | 177 kts | 57° |
| 2026-04-29 13:04 | 27.98151 | 129.12291 | 3892 ft | 176 kts | 57° |
| 2026-04-29 13:05 | 27.98845 | 129.13403 | 3792 ft | 174 kts | 57° |
| 2026-04-29 13:05 | 27.99541 | 129.14522 | 3689 ft | 174 kts | 57° |
| 2026-04-29 13:05 | 28.00239 | 129.15637 | 3584 ft | 173 kts | 57° |
| 2026-04-29 13:05 | 28.00925 | 129.16742 | 3515 ft | 169 kts | 57° |
| 2026-04-29 13:06 | 28.01590 | 129.17812 | 3514 ft | 163 kts | 57° |
| 2026-04-29 13:06 | 28.02237 | 129.18862 | 3509 ft | 162 kts | 58° |
| 2026-04-29 13:06 | 28.02879 | 129.19903 | 3499 ft | 161 kts | 58° |
| 2026-04-29 13:06 | 28.03524 | 129.20943 | 3502 ft | 162 kts | 57° |
| 2026-04-29 13:07 | 28.04172 | 129.21980 | 3496 ft | 161 kts | 58° |
| 2026-04-29 13:07 | 28.04812 | 129.23015 | 3503 ft | 160 kts | 58° |
| 2026-04-29 13:07 | 28.05451 | 129.24049 | 3503 ft | 161 kts | 57° |
| 2026-04-29 13:07 | 28.06096 | 129.25094 | 3511 ft | 164 kts | 58° |
| 2026-04-29 13:08 | 28.06755 | 129.26166 | 3507 ft | 168 kts | 57° |
| 2026-04-29 13:08 | 28.07426 | 129.27260 | 3506 ft | 171 kts | 57° |
| 2026-04-29 13:08 | 28.08106 | 129.28368 | 3509 ft | 172 kts | 56° |
| 2026-04-29 13:08 | 28.08791 | 129.29480 | 3505 ft | 172 kts | 57° |
| 2026-04-29 13:09 | 28.09472 | 129.30595 | 3505 ft | 173 kts | 57° |
| 2026-04-29 13:09 | 28.10157 | 129.31716 | 3510 ft | 173 kts | 57° |
| 2026-04-29 13:09 | 28.10842 | 129.32839 | 3509 ft | 173 kts | 57° |
| 2026-04-29 13:09 | 28.11527 | 129.33961 | 3506 ft | 173 kts | 57° |
| 2026-04-29 13:10 | 28.12214 | 129.35081 | 3506 ft | 173 kts | 57° |
| 2026-04-29 13:10 | 28.12893 | 129.36190 | 3500 ft | 173 kts | 57° |
| 2026-04-29 13:10 | 28.13583 | 129.37319 | 3501 ft | 174 kts | 57° |
| 2026-04-29 13:10 | 28.14275 | 129.38444 | 3505 ft | 174 kts | 57° |
| 2026-04-29 13:11 | 28.14965 | 129.39570 | 3499 ft | 175 kts | 57° |
| 2026-04-29 13:11 | 28.15670 | 129.40716 | 3396 ft | 179 kts | 57° |
| 2026-04-29 13:11 | 28.16381 | 129.41870 | 3299 ft | 177 kts | 57° |
| 2026-04-29 13:11 | 28.17084 | 129.43015 | 3201 ft | 176 kts | 57° |
| 2026-04-29 13:12 | 28.17781 | 129.44150 | 3101 ft | 175 kts | 57° |
| 2026-04-29 13:12 | 28.18476 | 129.45280 | 2998 ft | 175 kts | 57° |
| 2026-04-29 13:12 | 28.19162 | 129.46395 | 2895 ft | 172 kts | 57° |
| 2026-04-29 13:12 | 28.19850 | 129.47512 | 2792 ft | 172 kts | 57° |
| 2026-04-29 13:13 | 28.20536 | 129.48626 | 2694 ft | 172 kts | 57° |
| 2026-04-29 13:13 | 28.21222 | 129.49741 | 2592 ft | 172 kts | 57° |
| 2026-04-29 13:13 | 28.21909 | 129.50853 | 2491 ft | 172 kts | 57° |
| 2026-04-29 13:13 | 28.22585 | 129.51950 | 2392 ft | 172 kts | 57° |
| 2026-04-29 13:14 | 28.23269 | 129.53061 | 2299 ft | 172 kts | 57° |
| 2026-04-29 13:14 | 28.23954 | 129.54171 | 2192 ft | 172 kts | 57° |
| 2026-04-29 13:14 | 28.24638 | 129.55280 | 2093 ft | 171 kts | 57° |
| 2026-04-29 13:14 | 28.25321 | 129.56387 | 1994 ft | 171 kts | 57° |
| 2026-04-29 13:15 | 28.26000 | 129.57489 | 1892 ft | 171 kts | 57° |
| 2026-04-29 13:15 | 28.26682 | 129.58596 | 1794 ft | 171 kts | 57° |
| 2026-04-29 13:15 | 28.27362 | 129.59701 | 1692 ft | 170 kts | 57° |
| 2026-04-29 13:15 | 28.28037 | 129.60805 | 1591 ft | 170 kts | 57° |
| 2026-04-29 13:16 | 28.28702 | 129.61890 | 1505 ft | 169 kts | 58° |
| 2026-04-29 13:16 | 28.29377 | 129.62965 | 1502 ft | 166 kts | 57° |
| 2026-04-29 13:16 | 28.30046 | 129.64021 | 1498 ft | 164 kts | 58° |
| 2026-04-29 13:16 | 28.30713 | 129.65067 | 1487 ft | 163 kts | 57° |
| 2026-04-29 13:17 | 28.31431 | 129.66065 | 1494 ft | 164 kts | 47° |
| 2026-04-29 13:17 | 28.32022 | 129.66603 | 1482 ft | 165 kts | 38° |
| 2026-04-29 13:17 | 28.32974 | 129.67334 | 1501 ft | 165 kts | 35° |
| 2026-04-29 13:17 | 28.33972 | 129.67996 | 1500 ft | 166 kts | 32° |
| 2026-04-29 13:18 | 28.34978 | 129.68645 | 1499 ft | 166 kts | 32° |
| 2026-04-29 13:18 | 28.35980 | 129.69292 | 1500 ft | 165 kts | 32° |
| 2026-04-29 13:18 | 28.36992 | 129.69924 | 1500 ft | 166 kts | 28° |
| 2026-04-29 13:18 | 28.38046 | 129.70462 | 1503 ft | 166 kts | 26° |
| 2026-04-29 13:19 | 28.39101 | 129.70996 | 1502 ft | 167 kts | 26° |
| 2026-04-29 13:19 | 28.40162 | 129.71534 | 1502 ft | 167 kts | 26° |
| 2026-04-29 13:19 | 28.41200 | 129.72060 | 1415 ft | 157 kts | 27° |
| 2026-04-29 13:19 | 28.42158 | 129.72533 | 1288 ft | 141 kts | 26° |
| 2026-04-29 13:20 | 28.43024 | 129.72954 | 1156 ft | 131 kts | 27° |
| 2026-04-29 13:20 | 28.43823 | 129.73332 | 1054 ft | 119 kts | 27° |
| 2026-04-29 13:20 | 28.44562 | 129.73665 | 1006 ft | 102 kts | 17° |
| 2026-04-29 13:20 | 28.45124 | 129.73475 | 978 ft | 87 kts | 303° |
| 2026-04-29 13:21 | 28.45275 | 129.72818 | 818 ft | 82 kts | 248° |
| 2026-04-29 13:21 | 28.44940 | 129.72309 | 616 ft | 82 kts | 212° |
| 2026-04-29 13:21 | 28.44416 | 129.71998 | 304 ft | 88 kts | 204° |
| 2026-04-29 13:21 | 28.43879 | 129.71705 | 89 ft | 82 kts | 205° |
| 2026-04-29 13:22 | 28.43421 | 129.71450 | 55 ft | 56 kts | 206° |
| 2026-04-29 13:22 | 28.43159 | 129.71307 | 52 ft | 23 kts | 206° |
| 2026-04-29 13:22 | 28.43086 | 129.71208 | 54 ft | 16 kts | 289° |
| 2026-04-29 13:22 | 28.43124 | 129.71093 | 52 ft | 15 kts | 276° |
| 2026-04-29 13:23 | 28.43134 | 129.70976 | 55 ft | 12 kts | 274° |
| 2026-04-29 13:23 | 28.43136 | 129.70957 | 55 ft | 0 kts | 274° |